East Flat Rock, North Carolina
Current Conditions -  °F | °C
As of 5:54 PM on Thursday 18 Dec 2014 (Local Time) from KAVL Reporting Station
Overcast Overcast  
Wind Chill: 38°   Ceiling: 5000
Heat Index: 46°   Visibility: 10mi
Dew Point: 23°   Wind: 20mph
Humidity: 40%   Direction: 340°NNW
Pressure: 30.07"   Gusts: 24mph
Location:  35.28°N, 82.42°W
Report Text: KAVL 182254Z 34017G21KT 10SM OVC050 08/M05 A3007 RMK AO2 SLP186 T00781050
Loading
Personal Weather Stations






























Interactive Weather Map New forecast layout! Learn more

10-Day Weather Forecast

Advertisements
Track Severe Weather on mobile